createdAt,value
2023-03-29T00:00:14.569Z,1.83
2023-03-29T00:02:48.597Z,1.76
2023-03-29T00:05:18.931Z,1.77
2023-03-29T00:07:47.417Z,1.81
2023-03-29T00:10:15.929Z,1.89
2023-03-29T00:12:45.773Z,1.97
2023-03-29T00:15:14.670Z,1.92
2023-03-29T00:17:43.147Z,1.87
2023-03-29T00:20:13.747Z,1.88
2023-03-29T00:22:43.589Z,1.84
2023-03-29T00:25:13.066Z,1.80
2023-03-29T00:27:42.066Z,1.68
2023-03-29T00:30:15.063Z,1.64
2023-03-29T00:32:43.571Z,1.68
2023-03-29T00:35:12.705Z,1.74
2023-03-29T00:37:41.453Z,1.77
2023-03-29T00:40:13.086Z,1.78
2023-03-29T00:42:46.530Z,1.82
2023-03-29T00:45:27.700Z,1.82
2023-03-29T00:48:00.226Z,1.79
2023-03-29T00:50:34.357Z,1.76
2023-03-29T00:53:11.052Z,1.75
2023-03-29T00:55:45.612Z,1.71
2023-03-29T00:58:22.128Z,1.68
2023-03-29T01:01:02.427Z,1.65
2023-03-29T01:03:41.551Z,1.65
2023-03-29T01:06:12.541Z,1.59
2023-03-29T01:08:46.080Z,1.54
2023-03-29T01:11:22.353Z,1.47
2023-03-29T01:14:00.218Z,1.50
2023-03-29T01:16:33.515Z,1.55
2023-03-29T01:19:02.447Z,1.57
2023-03-29T01:21:36.655Z,1.58
2023-03-29T01:24:37.982Z,1.54
2023-03-29T01:27:15.795Z,1.51
2023-03-29T01:29:54.126Z,1.48
2023-03-29T01:32:35.082Z,1.49
2023-03-29T01:35:11.375Z,1.57
2023-03-29T01:37:48.229Z,1.54
2023-03-29T01:40:17.047Z,1.52
2023-03-29T01:42:54.517Z,1.49
2023-03-29T01:45:35.659Z,1.50
2023-03-29T01:48:14.762Z,1.52
2023-03-29T01:50:48.412Z,1.63
2023-03-29T01:53:24.885Z,1.63
2023-03-29T01:55:57.695Z,1.68
2023-03-29T01:58:35.217Z,1.71
2023-03-29T02:01:10.418Z,1.71
2023-03-29T02:03:43.879Z,1.72
2023-03-29T02:06:17.155Z,1.71
2023-03-29T02:08:47.587Z,1.76
2023-03-29T02:11:16.644Z,1.76
2023-03-29T02:13:45.495Z,1.76
2023-03-29T02:16:17.689Z,1.71
2023-03-29T02:18:50.315Z,1.70
2023-03-29T02:21:30.055Z,1.69
2023-03-29T02:24:06.492Z,1.62
2023-03-29T02:26:36.698Z,1.61
2023-03-29T02:31:42.219Z,1.58
2023-03-29T02:34:21.464Z,1.59
2023-03-29T02:36:54.589Z,1.57
2023-03-29T02:39:26.274Z,1.53
2023-03-29T02:41:57.230Z,1.54
2023-03-29T02:44:29.414Z,1.58
2023-03-29T02:47:05.468Z,1.58
2023-03-29T02:49:35.645Z,1.57
2023-03-29T02:52:13.753Z,1.58
2023-03-29T02:54:45.392Z,1.60
2023-03-29T02:57:13.878Z,1.64
2023-03-29T02:59:44.787Z,1.68
2023-03-29T03:02:15.373Z,1.67
2023-03-29T03:04:44.922Z,1.65
2023-03-29T03:07:13.844Z,1.66
2023-03-29T03:09:42.756Z,1.70
2023-03-29T03:12:11.568Z,1.69
2023-03-29T03:14:40.677Z,1.69
2023-03-29T03:17:09.234Z,1.71
2023-03-29T03:19:39.422Z,1.75
2023-03-29T03:22:10.057Z,1.78
2023-03-29T03:24:39.406Z,1.79
2023-03-29T03:27:08.638Z,1.80
2023-03-29T03:29:38.692Z,1.81
2023-03-29T03:32:09.986Z,1.84
2023-03-29T03:35:00.595Z,1.86
2023-03-29T03:37:29.795Z,1.81
2023-03-29T03:39:59.458Z,1.80
2023-03-29T03:42:30.080Z,1.86
2023-03-29T03:45:01.097Z,1.87
2023-03-29T03:47:48.582Z,1.92
2023-03-29T03:50:38.707Z,1.93
2023-03-29T03:53:08.438Z,1.96
2023-03-29T03:55:57.323Z,1.91
2023-03-29T03:58:30.486Z,1.92
2023-03-29T04:00:59.907Z,1.86
2023-03-29T04:03:39.511Z,1.86
2023-03-29T04:06:13.239Z,1.87
2023-03-29T04:09:02.408Z,1.85
2023-03-29T04:11:38.014Z,1.89
2023-03-29T04:14:07.793Z,1.84
2023-03-29T04:16:55.639Z,1.85
2023-03-29T04:19:43.930Z,1.87
2023-03-29T04:22:13.878Z,1.79
2023-03-29T04:24:44.264Z,1.62
2023-03-29T04:27:31.240Z,1.52
2023-03-29T04:30:02.216Z,1.40
2023-03-29T04:32:49.344Z,1.40
2023-03-29T04:35:19.396Z,1.43
2023-03-29T04:37:51.595Z,1.43
2023-03-29T04:40:22.548Z,1.52
2023-03-29T04:43:03.664Z,1.53
2023-03-29T04:45:33.258Z,1.59
2023-03-29T04:48:13.509Z,1.59
2023-03-29T04:50:47.890Z,1.60
2023-03-29T04:53:20.166Z,1.62
2023-03-29T04:55:49.480Z,1.66
2023-03-29T04:58:32.256Z,1.66
2023-03-29T05:01:02.045Z,1.69
2023-03-29T05:03:36.478Z,1.75
2023-03-29T05:06:13.769Z,1.78
2023-03-29T05:08:44.780Z,1.81
2023-03-29T05:11:25.427Z,1.85
2023-03-29T05:13:55.991Z,1.89
2023-03-29T05:16:26.426Z,1.97
2023-03-29T05:18:58.033Z,2.02
2023-03-29T05:21:28.368Z,2.01
2023-03-29T05:24:00.771Z,2.07
2023-03-29T05:26:54.149Z,2.10
2023-03-29T05:29:23.584Z,2.14
2023-03-29T05:32:00.331Z,2.17
2023-03-29T05:34:29.799Z,2.21
2023-03-29T05:37:01.658Z,2.23
2023-03-29T05:39:38.803Z,2.22
2023-03-29T05:42:07.817Z,2.27
2023-03-29T05:44:47.945Z,2.27
2023-03-29T05:47:21.393Z,2.33
2023-03-29T05:49:49.885Z,2.44
2023-03-29T05:52:22.633Z,2.49
2023-03-29T05:54:52.417Z,2.53
2023-03-29T05:57:22.192Z,2.59
2023-03-29T05:59:50.704Z,2.62
2023-03-29T06:02:19.568Z,2.67
2023-03-29T06:04:54.261Z,2.71
2023-03-29T06:07:25.560Z,2.74
2023-03-29T06:10:21.772Z,2.81
2023-03-29T06:12:56.543Z,2.83
2023-03-29T06:15:27.666Z,2.85
2023-03-29T06:18:03.690Z,2.88
2023-03-29T06:20:32.906Z,2.81
2023-03-29T06:23:08.051Z,2.84
2023-03-29T06:25:38.176Z,2.84
2023-03-29T06:28:07.821Z,2.88
2023-03-29T06:30:37.419Z,2.96
2023-03-29T06:33:07.272Z,3.01
2023-03-29T06:35:52.222Z,2.95
2023-03-29T06:38:28.692Z,2.96
2023-03-29T06:41:05.423Z,3.00
2023-03-29T06:43:53.612Z,3.04
2023-03-29T06:46:25.322Z,3.03
2023-03-29T06:48:58.940Z,3.14
2023-03-29T06:51:35.723Z,3.11
2023-03-29T06:54:05.472Z,3.19
2023-03-29T06:56:36.423Z,3.17
2023-03-29T06:59:08.499Z,3.25
2023-03-29T07:02:03.187Z,3.21
2023-03-29T07:04:57.814Z,3.18
2023-03-29T07:07:44.101Z,3.30
2023-03-29T07:10:28.187Z,3.29
2023-03-29T07:13:17.326Z,3.42
2023-03-29T07:15:46.670Z,3.48
2023-03-29T07:18:25.258Z,3.62
2023-03-29T07:20:53.903Z,3.75
2023-03-29T07:23:22.570Z,3.92
2023-03-29T07:25:52.677Z,4.05
2023-03-29T07:28:22.811Z,4.20
2023-03-29T07:30:55.031Z,4.35
2023-03-29T07:33:24.383Z,4.35
2023-03-29T07:35:57.345Z,4.45
2023-03-29T07:38:26.479Z,4.60
2023-03-29T07:41:04.442Z,4.70
2023-03-29T07:43:54.622Z,4.81
2023-03-29T07:46:26.290Z,5.00
2023-03-29T07:48:56.712Z,5.22
2023-03-29T07:51:25.552Z,5.37
2023-03-29T07:54:01.888Z,5.53
2023-03-29T07:56:38.965Z,5.60
2023-03-29T07:59:20.768Z,5.65
2023-03-29T08:02:01.619Z,5.69
2023-03-29T08:04:34.902Z,5.72
2023-03-29T08:07:21.193Z,6.25
2023-03-29T08:10:10.790Z,6.52
2023-03-29T08:12:58.147Z,6.51
2023-03-29T08:15:42.180Z,6.47
2023-03-29T08:18:20.306Z,6.45
2023-03-29T08:20:49.351Z,6.67
2023-03-29T08:23:18.066Z,6.63
2023-03-29T08:26:02.775Z,6.40
2023-03-29T08:28:32.332Z,5.99
2023-03-29T08:31:04.194Z,5.95
2023-03-29T08:33:33.368Z,6.09
2023-03-29T08:36:28.246Z,5.99
2023-03-29T08:39:02.040Z,6.11
2023-03-29T08:41:52.581Z,6.08
2023-03-29T08:44:48.626Z,6.20
2023-03-29T08:47:30.653Z,6.61
2023-03-29T08:50:01.513Z,6.83
2023-03-29T08:52:44.397Z,6.93
2023-03-29T08:55:37.272Z,7.43
2023-03-29T08:58:31.552Z,7.41
2023-03-29T09:01:04.095Z,8.04
2023-03-29T09:03:48.974Z,8.73
2023-03-29T09:06:27.524Z,8.77
2023-03-29T09:09:04.566Z,8.68
2023-03-29T09:12:02.758Z,8.94
2023-03-29T09:15:06.963Z,8.60
2023-03-29T09:17:51.778Z,8.22
2023-03-29T09:20:44.667Z,7.94
2023-03-29T09:23:45.306Z,7.84
2023-03-29T09:26:36.061Z,7.68
2023-03-29T09:29:37.414Z,7.44
2023-03-29T09:32:19.963Z,7.45
2023-03-29T09:35:04.517Z,7.53
2023-03-29T09:37:39.500Z,7.59
2023-03-29T09:40:14.723Z,7.63
2023-03-29T09:43:01.847Z,7.75
2023-03-29T09:45:30.837Z,7.92
2023-03-29T09:48:07.981Z,8.03
2023-03-29T09:50:41.759Z,8.01
2023-03-29T09:53:16.970Z,8.22
2023-03-29T09:55:55.427Z,8.41
2023-03-29T09:58:38.750Z,8.53
2023-03-29T10:01:10.523Z,8.60
2023-03-29T10:03:41.546Z,8.90
2023-03-29T10:06:15.819Z,8.76
2023-03-29T10:08:56.901Z,8.68
2023-03-29T10:11:33.515Z,8.66
2023-03-29T10:14:05.534Z,8.66
2023-03-29T10:16:40.044Z,8.95
2023-03-29T10:19:22.802Z,9.08
2023-03-29T10:21:52.903Z,9.08
2023-03-29T10:24:25.134Z,9.39
2023-03-29T10:26:57.034Z,9.36
2023-03-29T10:29:27.917Z,9.44
2023-03-29T10:31:56.681Z,9.84
2023-03-29T10:34:28.189Z,10.00
2023-03-29T10:37:01.200Z,10.32
2023-03-29T10:39:35.862Z,10.35
2023-03-29T10:42:06.047Z,10.81
2023-03-29T10:44:38.662Z,11.78
2023-03-29T10:47:20.201Z,12.12
2023-03-29T10:49:56.473Z,11.71
2023-03-29T10:52:26.995Z,11.68
2023-03-29T10:54:59.259Z,11.83
2023-03-29T10:57:42.740Z,12.02
2023-03-29T11:00:24.536Z,11.97
2023-03-29T11:03:42.046Z,12.13
2023-03-29T11:06:26.345Z,11.72
2023-03-29T11:08:59.869Z,11.47
2023-03-29T11:12:12.264Z,11.97
2023-03-29T11:14:56.265Z,11.99
2023-03-29T11:17:51.105Z,12.15
2023-03-29T11:20:29.819Z,11.82
2023-03-29T11:23:16.428Z,11.99
2023-03-29T11:25:58.853Z,12.26
2023-03-29T11:28:42.220Z,11.84
2023-03-29T11:31:25.912Z,12.00
2023-03-29T11:34:18.327Z,11.95
2023-03-29T11:37:01.129Z,11.72
2023-03-29T11:39:45.229Z,11.36
2023-03-29T11:42:21.499Z,11.50
2023-03-29T11:44:55.806Z,11.47
2023-03-29T11:47:30.638Z,11.25
2023-03-29T11:50:06.493Z,11.48
2023-03-29T11:52:40.911Z,11.45
2023-03-29T11:55:16.289Z,11.69
2023-03-29T11:57:53.118Z,11.83
2023-03-29T12:00:31.625Z,12.43
2023-03-29T12:03:08.278Z,12.79
2023-03-29T12:05:45.226Z,12.55
2023-03-29T12:08:19.805Z,12.63
2023-03-29T12:10:59.135Z,13.28
2023-03-29T12:13:35.360Z,13.71
2023-03-29T12:16:16.518Z,13.71
2023-03-29T12:18:49.427Z,14.22
2023-03-29T12:21:22.106Z,13.49
2023-03-29T12:23:53.434Z,12.95
2023-03-29T12:26:44.733Z,13.19
2023-03-29T12:29:36.822Z,13.71
2023-03-29T12:32:33.307Z,13.55
2023-03-29T12:35:35.024Z,13.46
2023-03-29T12:38:35.537Z,12.62
2023-03-29T12:41:26.116Z,12.61
2023-03-29T12:44:17.714Z,12.78
2023-03-29T12:46:58.614Z,13.00
2023-03-29T12:49:35.407Z,12.80
2023-03-29T12:52:15.501Z,12.78
2023-03-29T12:54:55.927Z,12.90
2023-03-29T12:57:39.457Z,12.92
2023-03-29T13:00:23.776Z,13.01
2023-03-29T13:03:04.060Z,12.90
2023-03-29T13:05:38.162Z,13.62
2023-03-29T13:08:27.793Z,13.83
2023-03-29T13:10:58.960Z,14.42
2023-03-29T13:13:33.802Z,14.41
2023-03-29T13:16:17.392Z,14.69
2023-03-29T13:19:14.549Z,14.38
2023-03-29T13:22:01.851Z,13.60
2023-03-29T13:25:04.313Z,13.32
2023-03-29T13:27:46.576Z,13.25
2023-03-29T13:30:45.380Z,13.35
2023-03-29T13:33:45.077Z,13.25
2023-03-29T13:36:31.279Z,13.00
2023-03-29T13:39:07.101Z,12.89
2023-03-29T13:41:49.425Z,12.75
2023-03-29T13:44:30.315Z,12.74
2023-03-29T13:47:28.494Z,13.15
2023-03-29T13:50:02.309Z,13.17
2023-03-29T13:52:36.493Z,12.98
2023-03-29T13:55:15.889Z,13.03
2023-03-29T13:57:54.296Z,14.03
2023-03-29T14:00:29.012Z,13.99
2023-03-29T14:03:01.550Z,14.33
2023-03-29T14:05:35.650Z,15.15
2023-03-29T14:08:14.420Z,15.34
2023-03-29T14:10:46.922Z,15.10
2023-03-29T14:13:17.840Z,15.17
2023-03-29T14:15:52.113Z,14.55
2023-03-29T14:18:25.904Z,14.17
2023-03-29T14:20:56.932Z,13.93
2023-03-29T14:23:28.323Z,13.79
2023-03-29T14:26:08.065Z,14.03
2023-03-29T14:28:37.783Z,13.41
2023-03-29T14:31:08.124Z,13.90
2023-03-29T14:33:38.144Z,14.00
2023-03-29T14:36:07.799Z,14.94
2023-03-29T14:38:38.342Z,15.32
2023-03-29T14:41:08.605Z,15.55
2023-03-29T14:43:38.687Z,15.50
2023-03-29T14:46:08.538Z,16.18
2023-03-29T14:48:38.517Z,16.45
2023-03-29T14:51:08.113Z,15.93
2023-03-29T14:53:38.971Z,16.06
2023-03-29T14:56:14.620Z,15.59
2023-03-29T14:58:47.622Z,14.43
2023-03-29T15:01:20.084Z,14.16
2023-03-29T15:03:55.210Z,13.90
2023-03-29T15:06:25.644Z,13.51
2023-03-29T15:09:05.203Z,13.89
2023-03-29T15:11:36.816Z,13.56
2023-03-29T15:14:10.007Z,13.23
2023-03-29T15:16:43.345Z,13.15
2023-03-29T15:19:18.139Z,13.13
2023-03-29T15:21:50.610Z,13.10
2023-03-29T15:24:29.452Z,13.07
2023-03-29T15:27:05.853Z,13.08
2023-03-29T15:29:42.421Z,12.89
2023-03-29T15:32:21.582Z,12.87
2023-03-29T15:35:00.617Z,13.00
2023-03-29T15:37:29.800Z,13.13
2023-03-29T15:39:58.974Z,13.43
2023-03-29T15:42:29.010Z,13.28
2023-03-29T15:44:57.924Z,12.99
2023-03-29T15:47:28.060Z,12.99
2023-03-29T15:49:57.037Z,13.06
2023-03-29T15:52:25.722Z,12.97
2023-03-29T15:54:54.486Z,12.89
2023-03-29T15:57:23.495Z,13.01
2023-03-29T15:59:53.600Z,12.91
2023-03-29T16:02:26.164Z,12.77
2023-03-29T16:04:54.773Z,12.80
2023-03-29T16:07:23.331Z,12.98
2023-03-29T16:09:52.285Z,13.08
2023-03-29T16:12:20.973Z,13.34
2023-03-29T16:14:49.902Z,13.44
2023-03-29T16:17:19.811Z,13.46
2023-03-29T16:19:48.248Z,13.50
2023-03-29T16:22:16.697Z,13.55
2023-03-29T16:24:45.070Z,13.46
2023-03-29T16:27:13.653Z,13.22
2023-03-29T16:29:42.566Z,12.88
2023-03-29T16:32:12.095Z,12.67
2023-03-29T16:34:44.836Z,12.53
2023-03-29T16:37:13.927Z,12.45
2023-03-29T16:39:42.630Z,12.39
2023-03-29T16:42:12.917Z,12.34
2023-03-29T16:44:41.563Z,12.32
2023-03-29T16:47:12.678Z,12.31
2023-03-29T16:49:45.302Z,12.29
2023-03-29T16:52:14.729Z,12.25
2023-03-29T16:54:43.546Z,12.22
2023-03-29T16:57:12.514Z,12.17
2023-03-29T16:59:42.327Z,12.17
2023-03-29T17:02:11.929Z,12.14
2023-03-29T17:04:41.949Z,12.11
2023-03-29T17:07:10.750Z,12.05
2023-03-29T17:09:39.735Z,12.02
2023-03-29T17:12:09.061Z,12.00
2023-03-29T17:14:39.284Z,11.95
2023-03-29T17:17:08.070Z,11.90
2023-03-29T17:19:36.842Z,11.84
2023-03-29T17:22:06.750Z,11.73
2023-03-29T17:24:35.667Z,11.65
2023-03-29T17:27:04.120Z,11.66
2023-03-29T17:29:33.210Z,11.64
2023-03-29T17:32:02.307Z,11.61
2023-03-29T17:34:32.951Z,11.62
2023-03-29T17:37:03.804Z,11.63
2023-03-29T17:39:37.509Z,11.61
2023-03-29T17:42:06.824Z,11.59
2023-03-29T17:44:35.676Z,11.56
2023-03-29T17:47:04.635Z,11.51
2023-03-29T17:49:33.276Z,11.48
2023-03-29T17:52:02.043Z,11.50
2023-03-29T17:54:31.021Z,11.49
2023-03-29T17:57:00.943Z,11.45
2023-03-29T17:59:29.730Z,11.41
2023-03-29T18:02:00.138Z,11.40
2023-03-29T18:04:30.914Z,11.41
2023-03-29T18:06:59.620Z,11.41
2023-03-29T18:09:30.613Z,11.36
2023-03-29T18:12:01.471Z,11.33
2023-03-29T18:14:30.346Z,11.35
2023-03-29T18:16:58.910Z,11.32
2023-03-29T18:19:28.133Z,11.31
2023-03-29T18:21:57.513Z,11.29
2023-03-29T18:24:26.219Z,11.25
2023-03-29T18:26:55.131Z,11.24
2023-03-29T18:29:25.471Z,11.20
2023-03-29T18:31:54.262Z,11.21
2023-03-29T18:34:22.746Z,11.07
2023-03-29T18:36:53.833Z,10.91
2023-03-29T18:39:22.485Z,10.80
2023-03-29T18:41:52.071Z,10.72
2023-03-29T18:44:21.892Z,10.69
2023-03-29T18:46:52.238Z,10.62
2023-03-29T18:49:21.460Z,10.56
2023-03-29T18:51:50.889Z,10.55
2023-03-29T18:54:19.564Z,10.55
2023-03-29T18:56:50.659Z,10.56
2023-03-29T18:59:19.331Z,10.49
2023-03-29T19:01:47.896Z,10.44
2023-03-29T19:04:19.877Z,10.38
2023-03-29T19:06:49.477Z,10.34
2023-03-29T19:09:18.117Z,10.33
2023-03-29T19:11:47.870Z,10.35
2023-03-29T19:14:17.487Z,10.33
2023-03-29T19:16:46.372Z,10.30
2023-03-29T19:19:14.827Z,10.30
2023-03-29T19:21:44.583Z,10.23
2023-03-29T19:24:13.019Z,10.17
2023-03-29T19:26:41.967Z,10.11
2023-03-29T19:29:11.737Z,10.09
2023-03-29T19:31:40.412Z,9.90
2023-03-29T19:34:11.113Z,9.76
2023-03-29T19:36:40.253Z,9.62
2023-03-29T19:39:10.172Z,9.40
2023-03-29T19:41:41.347Z,9.37
2023-03-29T19:44:10.700Z,9.42
2023-03-29T19:46:39.068Z,9.57
2023-03-29T19:49:08.873Z,9.65
2023-03-29T19:51:37.578Z,9.72
2023-03-29T19:54:06.960Z,9.80
2023-03-29T19:56:37.361Z,9.84
2023-03-29T19:59:05.735Z,9.88
2023-03-29T20:01:34.181Z,9.91
2023-03-29T20:04:03.524Z,9.93
2023-03-29T20:06:31.930Z,9.95
2023-03-29T20:09:00.826Z,10.00
2023-03-29T20:11:29.934Z,10.04
2023-03-29T20:14:00.453Z,10.06
2023-03-29T20:16:29.828Z,10.08
2023-03-29T20:19:01.949Z,10.07
2023-03-29T20:21:30.872Z,10.08
2023-03-29T20:23:59.942Z,10.04
2023-03-29T20:26:29.166Z,9.90
2023-03-29T20:29:00.504Z,9.70
2023-03-29T20:31:31.414Z,9.45
2023-03-29T20:34:00.042Z,9.17
2023-03-29T20:36:30.881Z,8.98
2023-03-29T20:39:00.283Z,8.79
2023-03-29T20:41:28.869Z,8.72
2023-03-29T20:43:59.690Z,8.64
2023-03-29T20:46:34.133Z,8.67
2023-03-29T20:49:04.633Z,8.71
2023-03-29T20:51:33.634Z,8.70
2023-03-29T20:54:05.157Z,8.68
2023-03-29T20:56:41.710Z,8.55
2023-03-29T20:59:12.241Z,8.41
2023-03-29T21:01:41.049Z,8.37
2023-03-29T21:04:10.836Z,8.25
2023-03-29T21:06:40.371Z,8.19
2023-03-29T21:09:09.005Z,8.13
2023-03-29T21:11:37.961Z,8.11
2023-03-29T21:14:06.970Z,8.05
2023-03-29T21:16:37.035Z,8.07
2023-03-29T21:19:06.082Z,8.01
2023-03-29T21:21:35.132Z,7.88
2023-03-29T21:24:03.952Z,7.79
2023-03-29T21:26:32.698Z,7.76
2023-03-29T21:29:01.675Z,7.77
2023-03-29T21:31:30.294Z,7.81
2023-03-29T21:34:00.501Z,7.84
2023-03-29T21:36:29.290Z,7.84
2023-03-29T21:38:57.904Z,7.86
2023-03-29T21:41:27.275Z,7.81
2023-03-29T21:43:55.656Z,7.74
2023-03-29T21:46:24.857Z,7.74
2023-03-29T21:48:53.457Z,7.75
2023-03-29T21:51:23.354Z,7.83
2023-03-29T21:53:51.828Z,7.84
2023-03-29T21:56:20.738Z,7.78
2023-03-29T21:58:49.186Z,7.79
2023-03-29T22:01:18.189Z,7.81
2023-03-29T22:03:47.592Z,7.76
2023-03-29T22:06:17.677Z,7.74
2023-03-29T22:08:49.578Z,7.67
2023-03-29T22:11:18.573Z,7.67
2023-03-29T22:13:47.810Z,7.61
2023-03-29T22:16:18.356Z,7.56
2023-03-29T22:18:49.587Z,7.53
2023-03-29T22:21:22.629Z,7.48
2023-03-29T22:23:55.272Z,7.50
2023-03-29T22:26:27.784Z,7.52
2023-03-29T22:28:57.818Z,7.55
2023-03-29T22:31:28.540Z,7.53
2023-03-29T22:33:58.484Z,7.56
2023-03-29T22:36:30.652Z,7.61
2023-03-29T22:39:01.379Z,7.67
2023-03-29T22:41:30.176Z,7.64
2023-03-29T22:44:01.062Z,7.57
2023-03-29T22:46:31.280Z,7.46
2023-03-29T22:48:59.861Z,7.50
2023-03-29T22:51:28.873Z,7.52
2023-03-29T22:53:57.264Z,7.47
2023-03-29T22:56:27.278Z,7.42
2023-03-29T22:58:55.724Z,7.45
2023-03-29T23:01:24.511Z,7.50
2023-03-29T23:03:52.984Z,7.51
2023-03-29T23:06:21.434Z,7.48
2023-03-29T23:08:50.139Z,7.55
2023-03-29T23:11:19.312Z,7.61
2023-03-29T23:13:49.680Z,7.65
2023-03-29T23:16:20.847Z,7.65
2023-03-29T23:18:49.935Z,7.61
2023-03-29T23:21:18.841Z,7.63
2023-03-29T23:23:47.176Z,7.63
2023-03-29T23:26:15.854Z,7.63
2023-03-29T23:28:44.896Z,7.62
2023-03-29T23:31:18.614Z,7.59
2023-03-29T23:33:47.195Z,7.47
2023-03-29T23:36:19.483Z,7.44
2023-03-29T23:38:48.990Z,7.48
2023-03-29T23:41:19.222Z,7.48
2023-03-29T23:43:48.445Z,7.54
2023-03-29T23:46:20.516Z,7.63
2023-03-29T23:48:50.880Z,7.64
2023-03-29T23:51:23.005Z,7.62
2023-03-29T23:53:52.469Z,7.63
2023-03-29T23:56:21.698Z,7.61
2023-03-29T23:58:50.956Z,7.60
